Time;durP1;ratioP1;P1;durP2;ratioP2;P2;SDS_P1;SDS_P2;PMS_P1;PMS_P2;Temp;Humidity;BMP_temperature;BMP_pressure;BME280_temperature;BME280_humidity;BME280_pressure;Samples;Min_cycle;Max_cycle;Signal;HPM_P1;HPM_P2
2021/09/09 00:00:43;;;;;;;14.70;13.40;;;;;;;;;;5056715;28;20233;-60
2021/09/09 00:03:08;;;;;;;15.43;14.03;;;;;;;;;;5056331;28;20225;-60
2021/09/09 00:05:33;;;;;;;15.90;14.60;;;;;;;;;;5056636;28;20304;-61
2021/09/09 00:07:59;;;;;;;15.70;14.13;;;;;;;;;;5056721;28;20603;-61
2021/09/09 00:10:24;;;;;;;15.90;14.50;;;;;;;;;;5056034;28;20233;-60
2021/09/09 00:12:49;;;;;;;14.80;13.17;;;;;;;;;;5039179;28;20221;-60
2021/09/09 00:15:15;;;;;;;15.37;13.87;;;;;;;;;;5056130;28;20656;-60
2021/09/09 00:17:40;;;;;;;16.10;14.60;;;;;;;;;;5056596;28;20291;-60
2021/09/09 00:20:09;;;;;;;15.60;14.03;;;;;;;;;;5055924;28;20217;-61
2021/09/09 00:22:34;;;;;;;16.13;14.57;;;;;;;;;;5056342;28;20217;-61
2021/09/09 00:25:00;;;;;;;16.90;14.30;;;;;;;;;;5056200;28;20467;-60
2021/09/09 00:27:25;;;;;;;15.97;14.53;;;;;;;;;;5055645;28;20308;-60
2021/09/09 00:29:50;;;;;;;14.90;13.50;;;;;;;;;;5056187;28;20248;-59
2021/09/09 00:32:15;;;;;;;16.10;14.33;;;;;;;;;;5055619;28;20343;-59
2021/09/09 00:34:41;;;;;;;15.80;14.20;;;;;;;;;;5056253;28;20565;-60
2021/09/09 00:37:06;;;;;;;17.23;14.90;;;;;;;;;;5055820;28;20228;-60
2021/09/09 00:39:31;;;;;;;15.20;13.70;;;;;;;;;;5055292;28;20225;-60
2021/09/09 00:41:56;;;;;;;15.33;14.03;;;;;;;;;;5055445;28;20329;-60
2021/09/09 00:44:23;;;;;;;15.63;14.20;;;;;;;;;;5055423;28;24007;-60
2021/09/09 00:47:03;;;;;;;16.73;15.07;;;;;;;;;;5055981;28;20359;-60
2021/09/09 00:49:29;;;;;;;20.53;16.70;;;;;;;;;;5055741;28;21206;-60
2021/09/09 00:51:55;;;;;;;17.40;15.80;;;;;;;;;;5055609;28;20803;-60
2021/09/09 00:54:20;;;;;;;14.83;13.40;;;;;;;;;;5055089;28;20209;-60
2021/09/09 00:56:45;;;;;;;15.13;13.73;;;;;;;;;;5055791;28;20448;-60
2021/09/09 00:59:11;;;;;;;16.23;14.87;;;;;;;;;;5055200;28;20726;-60
2021/09/09 01:01:36;;;;;;;15.13;13.83;;;;;;;;;;5055657;28;20221;-60
2021/09/09 01:04:01;;;;;;;15.60;14.00;;;;;;;;;;5055686;28;20350;-60
2021/09/09 01:06:27;;;;;;;15.37;13.97;;;;;;;;;;5055038;28;20300;-60
2021/09/09 01:08:52;;;;;;;15.40;14.00;;;;;;;;;;5055534;28;20275;-59
2021/09/09 01:11:17;;;;;;;16.13;14.30;;;;;;;;;;5054886;28;20312;-60
2021/09/09 01:13:50;;;;;;;14.13;12.83;;;;;;;;;;5055514;28;20296;-60
2021/09/09 01:16:16;;;;;;;14.97;13.67;;;;;;;;;;5054856;28;20212;-60
2021/09/09 01:18:41;;;;;;;16.07;14.60;;;;;;;;;;5055342;28;20898;-59
2021/09/09 01:21:06;;;;;;;15.33;13.73;;;;;;;;;;5054699;28;20221;-61
2021/09/09 01:23:31;;;;;;;14.67;13.37;;;;;;;;;;5055071;28;20263;-60
2021/09/09 01:25:57;;;;;;;15.07;13.67;;;;;;;;;;5055316;28;20213;-61
2021/09/09 01:28:22;;;;;;;15.73;14.07;;;;;;;;;;5054742;28;20320;-61
2021/09/09 01:30:47;;;;;;;14.30;12.90;;;;;;;;;;5054981;28;20225;-60
2021/09/09 01:33:12;;;;;;;14.67;13.47;;;;;;;;;;5054866;28;20565;-60
2021/09/09 01:35:38;;;;;;;15.70;13.67;;;;;;;;;;5055035;28;20232;-59
2021/09/09 01:38:03;;;;;;;14.67;13.37;;;;;;;;;;5037168;28;20650;-60
2021/09/09 01:40:32;;;;;;;15.00;13.70;;;;;;;;;;5054054;28;20225;-60
2021/09/09 01:42:58;;;;;;;15.17;13.67;;;;;;;;;;5055119;28;20221;-60
2021/09/09 01:45:23;;;;;;;15.27;13.53;;;;;;;;;;5054340;28;20539;-59
2021/09/09 01:47:48;;;;;;;16.00;14.30;;;;;;;;;;5054826;28;20539;-60
2021/09/09 01:50:14;;;;;;;14.47;13.17;;;;;;;;;;5054020;28;20300;-59
2021/09/09 01:52:39;;;;;;;15.03;13.63;;;;;;;;;;5054403;28;20227;-60
2021/09/09 01:55:05;;;;;;;15.97;14.30;;;;;;;;;;5054731;28;20270;-60
2021/09/09 01:57:30;;;;;;;15.30;13.97;;;;;;;;;;5054449;28;20244;-61
2021/09/09 01:59:56;;;;;;;15.50;14.00;;;;;;;;;;5037158;28;20217;-60
2021/09/09 02:02:22;;;;;;;14.50;13.03;;;;;;;;;;5054106;28;20649;-60
2021/09/09 02:04:47;;;;;;;14.70;13.20;;;;;;;;;;5054259;28;20546;-60
2021/09/09 02:07:12;;;;;;;14.53;13.03;;;;;;;;;;5053824;28;20350;-60
2021/09/09 02:09:38;;;;;;;13.53;12.30;;;;;;;;;;5054359;28;20545;-59
2021/09/09 02:12:03;;;;;;;14.13;12.80;;;;;;;;;;5054276;28;20286;-60
2021/09/09 02:14:29;;;;;;;14.97;13.47;;;;;;;;;;5053820;28;20225;-60
2021/09/09 02:16:54;;;;;;;14.37;12.97;;;;;;;;;;5054633;28;20233;-60
2021/09/09 02:19:19;;;;;;;15.23;13.40;;;;;;;;;;5053863;28;20712;-61
2021/09/09 02:21:44;;;;;;;14.13;12.80;;;;;;;;;;5054150;28;20213;-61
2021/09/09 02:24:10;;;;;;;13.27;11.97;;;;;;;;;;5054093;28;20236;-62
2021/09/09 02:26:35;;;;;;;14.13;12.43;;;;;;;;;;5054213;28;20245;-60
2021/09/09 02:29:00;;;;;;;14.70;13.33;;;;;;;;;;5054202;28;20231;-60
2021/09/09 02:31:25;;;;;;;15.27;13.77;;;;;;;;;;5053251;28;20229;-60
2021/09/09 02:33:52;;;;;;;14.57;13.07;;;;;;;;;;5054089;28;20300;-60
2021/09/09 02:36:17;;;;;;;14.47;13.07;;;;;;;;;;5053607;28;20233;-61
2021/09/09 02:38:42;;;;;;;13.50;12.30;;;;;;;;;;5054025;28;20959;-61
2021/09/09 02:41:07;;;;;;;14.53;13.03;;;;;;;;;;5053685;28;20275;-61
2021/09/09 02:43:33;;;;;;;13.37;12.17;;;;;;;;;;5053485;28;20641;-59
2021/09/09 02:45:58;;;;;;;14.10;12.70;;;;;;;;;;5053761;28;20228;-60
2021/09/09 02:48:24;;;;;;;13.40;12.20;;;;;;;;;;5053303;28;20296;-60
2021/09/09 02:50:49;;;;;;;13.63;12.43;;;;;;;;;;5053660;28;20236;-60
2021/09/09 02:53:14;;;;;;;13.60;12.40;;;;;;;;;;5053273;28;20285;-61
2021/09/09 02:55:39;;;;;;;22.07;12.03;;;;;;;;;;5053772;28;20209;-60
2021/09/09 02:58:05;;;;;;;13.70;12.47;;;;;;;;;;5036295;28;20278;-60
2021/09/09 03:00:30;;;;;;;14.47;12.60;;;;;;;;;;5053412;28;20637;-60
2021/09/09 03:02:55;;;;;;;14.20;12.80;;;;;;;;;;5053822;28;20294;-60
2021/09/09 03:05:21;;;;;;;13.43;12.13;;;;;;;;;;5057366;28;20216;-60
2021/09/09 03:07:46;;;;;;;14.17;12.77;;;;;;;;;;5057826;28;20564;-61
2021/09/09 03:10:12;;;;;;;16.07;12.47;;;;;;;;;;5057425;28;20673;-60
2021/09/09 03:12:37;;;;;;;13.33;12.10;;;;;;;;;;5057353;28;20304;-60
2021/09/09 03:15:02;;;;;;;14.80;13.50;;;;;;;;;;5057927;28;20216;-60
2021/09/09 03:17:28;;;;;;;13.67;12.40;;;;;;;;;;5057397;28;20220;-61
2021/09/09 03:19:53;;;;;;;14.73;13.23;;;;;;;;;;5057684;28;20228;-60
2021/09/09 03:22:18;;;;;;;13.90;12.60;;;;;;;;;;5057069;28;20212;-60
2021/09/09 03:24:44;;;;;;;13.40;12.20;;;;;;;;;;5057509;28;20318;-60
2021/09/09 03:27:09;;;;;;;13.87;12.63;;;;;;;;;;5057656;28;20274;-61
2021/09/09 03:29:34;;;;;;;14.20;12.70;;;;;;;;;;5057127;28;20279;-60
2021/09/09 03:32:00;;;;;;;15.50;11.60;;;;;;;;;;5057203;28;20315;-60
2021/09/09 03:34:25;;;;;;;13.97;12.77;;;;;;;;;;5057003;28;20538;-60
2021/09/09 03:36:50;;;;;;;13.30;12.10;;;;;;;;;;5057324;28;20308;-59
2021/09/09 03:39:16;;;;;;;14.07;12.77;;;;;;;;;;5056636;28;20212;-60
2021/09/09 03:41:41;;;;;;;13.83;12.53;;;;;;;;;;5056814;28;20241;-61
2021/09/09 03:44:06;;;;;;;14.17;12.80;;;;;;;;;;5057163;28;20613;-60
2021/09/09 03:46:32;;;;;;;15.50;14.00;;;;;;;;;;5056639;28;20299;-61
2021/09/09 03:48:58;;;;;;;14.53;13.00;;;;;;;;;;5057302;28;20303;-60
2021/09/09 03:51:23;;;;;;;12.57;11.47;;;;;;;;;;5056253;28;20252;-61
2021/09/09 03:53:48;;;;;;;12.93;11.73;;;;;;;;;;5056929;28;20950;-61
2021/09/09 03:56:13;;;;;;;14.53;13.10;;;;;;;;;;5056906;28;20300;-60
2021/09/09 03:58:39;;;;;;;14.50;13.20;;;;;;;;;;5056581;28;20224;-62
2021/09/09 04:01:04;;;;;;;14.83;13.30;;;;;;;;;;5056723;28;20300;-60
2021/09/09 04:03:29;;;;;;;14.00;12.70;;;;;;;;;;5056499;28;20228;-59
2021/09/09 04:05:55;;;;;;;14.20;13.00;;;;;;;;;;5056662;28;20530;-60
2021/09/09 04:08:20;;;;;;;14.80;13.40;;;;;;;;;;5038631;28;20228;-61
2021/09/09 04:10:45;;;;;;;14.73;13.33;;;;;;;;;;5056223;28;20255;-59
2021/09/09 04:13:10;;;;;;;15.10;13.80;;;;;;;;;;5056677;28;20209;-60
2021/09/09 04:15:36;;;;;;;14.97;13.57;;;;;;;;;;5055720;28;20224;-60
2021/09/09 04:18:01;;;;;;;13.83;12.43;;;;;;;;;;5056396;28;20556;-60
2021/09/09 04:20:26;;;;;;;14.70;13.30;;;;;;;;;;5055883;28;20687;-61
2021/09/09 04:22:52;;;;;;;13.83;12.47;;;;;;;;;;5056345;28;20220;-60
2021/09/09 04:25:17;;;;;;;13.30;12.00;;;;;;;;;;5056453;28;20225;-60
2021/09/09 04:27:42;;;;;;;16.43;13.50;;;;;;;;;;5055708;28;20269;-61
2021/09/09 04:30:08;;;;;;;15.87;14.40;;;;;;;;;;5055889;28;20221;-61
2021/09/09 04:32:33;;;;;;;14.80;13.40;;;;;;;;;;5038138;28;20217;-61
2021/09/09 04:34:59;;;;;;;15.47;14.00;;;;;;;;;;5038655;28;20474;-60
2021/09/09 04:37:24;;;;;;;15.00;13.57;;;;;;;;;;5053541;28;20225;-61
2021/09/09 04:39:49;;;;;;;14.63;13.13;;;;;;;;;;5055062;28;20240;-61
2021/09/09 04:42:15;;;;;;;15.20;13.80;;;;;;;;;;5059874;28;20278;-61
2021/09/09 04:44:40;;;;;;;16.83;12.97;;;;;;;;;;5068783;28;20623;-61
2021/09/09 04:47:05;;;;;;;14.77;13.50;;;;;;;;;;5067564;28;20351;-61
2021/09/09 04:49:30;;;;;;;14.43;13.03;;;;;;;;;;5061749;28;20220;-61
2021/09/09 04:51:56;;;;;;;14.53;13.13;;;;;;;;;;5063428;28;20240;-62
2021/09/09 04:54:21;;;;;;;15.00;13.60;;;;;;;;;;5068315;28;20244;-62
2021/09/09 04:56:47;;;;;;;14.73;13.33;;;;;;;;;;5067297;28;20651;-61
2021/09/09 04:59:12;;;;;;;16.00;14.40;;;;;;;;;;5044366;28;20286;-61
2021/09/09 05:01:37;;;;;;;14.37;13.10;;;;;;;;;;5063247;28;20263;-62
2021/09/09 05:04:03;;;;;;;14.40;12.23;;;;;;;;;;5068884;28;20617;-62
2021/09/09 05:06:28;;;;;;;15.23;13.73;;;;;;;;;;5066271;28;20312;-62
2021/09/09 05:08:53;;;;;;;15.17;13.57;;;;;;;;;;5061779;28;20231;-61
2021/09/09 05:11:18;;;;;;;14.80;13.40;;;;;;;;;;5063963;28;20225;-61
2021/09/09 05:13:44;;;;;;;15.27;13.67;;;;;;;;;;5067987;28;20279;-62
2021/09/09 05:16:09;;;;;;;15.03;13.60;;;;;;;;;;5066204;28;20216;-62
2021/09/09 05:18:35;;;;;;;14.60;13.07;;;;;;;;;;5043535;28;20228;-61
2021/09/09 05:21:01;;;;;;;14.83;13.33;;;;;;;;;;5064136;28;20255;-61
2021/09/09 05:23:26;;;;;;;15.03;13.47;;;;;;;;;;5067700;28;20468;-62
2021/09/09 05:25:51;;;;;;;13.53;12.13;;;;;;;;;;5065246;28;20659;-62
2021/09/09 05:28:17;;;;;;;14.57;13.07;;;;;;;;;;5043836;28;20231;-61
2021/09/09 05:30:42;;;;;;;13.50;12.20;;;;;;;;;;5064086;28;20229;-62
2021/09/09 05:33:07;;;;;;;16.53;13.10;;;;;;;;;;5068255;28;20213;-62
2021/09/09 05:35:33;;;;;;;15.20;12.50;;;;;;;;;;5064405;28;20216;-62
2021/09/09 05:37:58;;;;;;;13.30;11.90;;;;;;;;;;5052543;28;20675;-61
2021/09/09 05:40:23;;;;;;;14.70;13.33;;;;;;;;;;5065160;28;20664;-61
2021/09/09 05:42:48;;;;;;;13.77;12.53;;;;;;;;;;5061096;28;20220;-62
2021/09/09 05:45:14;;;;;;;15.67;13.20;;;;;;;;;;5062995;28;20221;-61
2021/09/09 05:47:39;;;;;;;15.47;12.93;;;;;;;;;;5067277;28;20315;-61
2021/09/09 05:50:06;;;;;;;13.60;12.30;;;;;;;;;;5065511;28;20224;-61
2021/09/09 05:52:31;;;;;;;14.17;12.77;;;;;;;;;;5060339;28;20599;-62
2021/09/09 05:54:56;;;;;;;13.10;11.80;;;;;;;;;;5063714;28;20470;-62
2021/09/09 05:57:22;;;;;;;13.23;11.93;;;;;;;;;;5067557;28;20696;-62
2021/09/09 05:59:47;;;;;;;12.97;11.73;;;;;;;;;;5064220;28;20362;-61
2021/09/09 06:02:15;;;;;;;12.73;11.60;;;;;;;;;;5041859;28;20220;-61
2021/09/09 06:04:40;;;;;;;14.90;13.40;;;;;;;;;;5063540;28;20676;-62
2021/09/09 06:07:06;;;;;;;13.43;12.23;;;;;;;;;;5049997;28;20455;-62
2021/09/09 06:09:31;;;;;;;12.23;11.23;;;;;;;;;;5046843;28;20220;-61
2021/09/09 06:11:56;;;;;;;18.53;12.37;;;;;;;;;;5060398;28;20315;-61
2021/09/09 06:14:21;;;;;;;13.00;11.70;;;;;;;;;;5064323;28;20221;-61
2021/09/09 06:16:47;;;;;;;12.40;11.27;;;;;;;;;;5066853;28;20241;-61
2021/09/09 06:19:12;;;;;;;16.10;12.23;;;;;;;;;;5064117;28;20216;-62
2021/09/09 06:21:37;;;;;;;13.17;11.90;;;;;;;;;;5059901;28;20228;-61
2021/09/09 06:24:06;;;;;;;15.03;12.00;;;;;;;;;;5064179;28;20606;-61
2021/09/09 06:26:31;;;;;;;12.90;11.37;;;;;;;;;;5066948;28;20252;-62
2021/09/09 06:28:57;;;;;;;11.80;10.73;;;;;;;;;;5063780;28;20840;-61
2021/09/09 06:31:22;;;;;;;11.57;10.67;;;;;;;;;;5060108;28;20228;-61
2021/09/09 06:33:47;;;;;;;12.10;10.60;;;;;;;;;;5063501;28;20308;-60
2021/09/09 06:36:12;;;;;;;11.90;10.80;;;;;;;;;;5066903;28;20221;-61
2021/09/09 06:38:38;;;;;;;12.07;10.87;;;;;;;;;;5039434;28;20252;-61
2021/09/09 06:41:03;;;;;;;14.10;11.20;;;;;;;;;;5052668;28;20220;-62
2021/09/09 06:43:28;;;;;;;12.13;10.60;;;;;;;;;;5059630;28;22657;-62
2021/09/09 06:45:53;;;;;;;13.57;11.33;;;;;;;;;;5064294;28;20225;-62
2021/09/09 06:48:19;;;;;;;11.80;10.73;;;;;;;;;;5067413;28;20323;-61
2021/09/09 06:50:44;;;;;;;15.03;10.27;;;;;;;;;;5061974;28;20231;-61
2021/09/09 06:53:09;;;;;;;11.83;10.60;;;;;;;;;;5058649;28;20240;-64
2021/09/09 06:55:34;;;;;;;11.47;10.40;;;;;;;;;;5043736;28;20254;-60
2021/09/09 06:58:00;;;;;;;11.30;10.17;;;;;;;;;;5060029;28;20637;-62
2021/09/09 07:00:26;;;;;;;10.83;9.83;;;;;;;;;;5048008;28;20213;-61
2021/09/09 07:02:51;;;;;;;11.20;10.10;;;;;;;;;;5066373;28;20926;-62
2021/09/09 07:05:16;;;;;;;12.93;11.60;;;;;;;;;;5061623;28;20299;-61
2021/09/09 07:07:42;;;;;;;10.27;9.10;;;;;;;;;;5059499;28;20286;-61
2021/09/09 07:10:08;;;;;;;11.77;10.60;;;;;;;;;;5065927;28;20228;-61
2021/09/09 07:12:33;;;;;;;11.83;10.63;;;;;;;;;;5066225;28;20224;-62
2021/09/09 07:14:59;;;;;;;11.30;10.20;;;;;;;;;;5060716;28;20749;-61
2021/09/09 07:17:25;;;;;;;11.07;9.47;;;;;;;;;;5060041;28;20286;-62
2021/09/09 07:19:50;;;;;;;10.43;9.27;;;;;;;;;;5065794;28;20319;-62
2021/09/09 07:22:15;;;;;;;11.43;10.17;;;;;;;;;;5066562;28;20458;-62
2021/09/09 07:24:40;;;;;;;11.37;10.03;;;;;;;;;;5060098;28;20644;-62
2021/09/09 07:27:06;;;;;;;10.57;9.57;;;;;;;;;;5060067;28;20231;-60
2021/09/09 07:29:31;;;;;;;11.37;10.17;;;;;;;;;;5065944;28;20653;-61
2021/09/09 07:31:57;;;;;;;10.37;9.10;;;;;;;;;;5066359;28;20220;-61
2021/09/09 07:34:22;;;;;;;13.00;11.77;;;;;;;;;;5046066;28;20228;-61
2021/09/09 07:36:47;;;;;;;14.53;12.30;;;;;;;;;;5059955;28;20217;-62
2021/09/09 07:39:13;;;;;;;11.17;9.30;;;;;;;;;;5057205;28;20217;-61
2021/09/09 07:41:38;;;;;;;10.77;9.77;;;;;;;;;;5060444;28;20229;-62
2021/09/09 07:44:03;;;;;;;12.57;10.00;;;;;;;;;;5060936;28;20216;-61
2021/09/09 07:46:30;;;;;;;13.17;9.53;;;;;;;;;;5059191;28;20213;-61
2021/09/09 07:48:55;;;;;;;13.77;12.37;;;;;;;;;;5065496;28;20677;-61
2021/09/09 07:51:22;;;;;;;10.17;8.60;;;;;;;;;;5052218;28;20550;-62
2021/09/09 07:53:47;;;;;;;10.90;9.80;;;;;;;;;;5064127;28;20704;-61
2021/09/09 07:56:13;;;;;;;10.20;9.20;;;;;;;;;;5045648;28;20463;-61
2021/09/09 07:58:38;;;;;;;10.50;9.37;;;;;;;;;;5068960;28;20244;-62
2021/09/09 08:01:03;;;;;;;13.57;12.20;;;;;;;;;;5052506;28;20224;-62
2021/09/09 08:03:29;;;;;;;10.20;9.20;;;;;;;;;;5057435;28;20220;-62
2021/09/09 08:05:54;;;;;;;11.67;10.03;;;;;;;;;;5068799;28;20236;-62
2021/09/09 08:08:20;;;;;;;9.00;8.10;;;;;;;;;;5063083;28;20220;-62
2021/09/09 08:10:45;;;;;;;14.50;10.90;;;;;;;;;;5063535;28;20263;-62
2021/09/09 08:13:11;;;;;;;11.00;9.90;;;;;;;;;;5070014;28;20310;-62
2021/09/09 08:15:37;;;;;;;10.67;8.80;;;;;;;;;;5068331;28;20216;-62
2021/09/09 08:18:03;;;;;;;11.20;7.43;;;;;;;;;;5063034;28;20212;-62
2021/09/09 08:20:28;;;;;;;11.17;9.60;;;;;;;;;;5063594;28;20455;-61
2021/09/09 08:22:53;;;;;;;9.90;8.90;;;;;;;;;;5069079;28;20448;-61
2021/09/09 08:25:19;;;;;;;9.73;8.27;;;;;;;;;;5068968;28;20311;-62
2021/09/09 08:27:44;;;;;;;10.77;9.70;;;;;;;;;;5062236;28;20231;-61
2021/09/09 08:30:09;;;;;;;14.20;10.30;;;;;;;;;;5064014;28;20221;-61
2021/09/09 08:32:35;;;;;;;13.33;8.00;;;;;;;;;;5051349;28;20595;-62
2021/09/09 08:35:00;;;;;;;9.47;7.67;;;;;;;;;;5068456;28;20644;-62
2021/09/09 08:37:25;;;;;;;12.17;8.03;;;;;;;;;;5062690;28;20299;-61
2021/09/09 08:39:52;;;;;;;9.60;8.70;;;;;;;;;;5062360;28;20225;-61
2021/09/09 08:42:18;;;;;;;12.37;8.97;;;;;;;;;;5069278;28;20218;-62
2021/09/09 08:44:44;;;;;;;9.27;7.80;;;;;;;;;;5068282;28;20458;-62
2021/09/09 08:47:10;;;;;;;8.50;7.70;;;;;;;;;;5062192;28;20945;-62
2021/09/09 08:49:36;;;;;;;10.47;8.90;;;;;;;;;;5062365;28;20604;-62
2021/09/09 08:52:03;;;;;;;8.97;8.07;;;;;;;;;;5068931;28;20459;-61
2021/09/09 08:54:29;;;;;;;8.50;7.70;;;;;;;;;;5068919;28;20221;-61
2021/09/09 08:56:54;;;;;;;9.17;8.27;;;;;;;;;;5061699;28;20451;-62
2021/09/09 08:59:19;;;;;;;8.77;7.50;;;;;;;;;;5062816;28;20657;-61
2021/09/09 09:02:09;;;;;;;9.33;8.10;;;;;;;;;;5067276;28;20218;-62
2021/09/09 09:04:35;;;;;;;9.63;8.60;;;;;;;;;;5068653;28;20244;-60
2021/09/09 09:07:01;;;;;;;8.87;7.83;;;;;;;;;;5064239;28;20471;-61
2021/09/09 09:09:32;;;;;;;9.07;8.17;;;;;;;;;;5061309;28;20456;-62
2021/09/09 09:11:57;;;;;;;8.07;7.27;;;;;;;;;;5065303;28;21010;-61
2021/09/09 09:14:25;;;;;;;9.10;8.20;;;;;;;;;;5068909;28;20466;-62
2021/09/09 09:16:52;;;;;;;13.17;10.30;;;;;;;;;;5064732;28;20238;-61
2021/09/09 09:19:23;;;;;;;13.13;9.33;;;;;;;;;;5061522;28;20787;-61
2021/09/09 09:22:01;;;;;;;11.43;9.50;;;;;;;;;;5064346;28;20531;-62
2021/09/09 09:24:32;;;;;;;10.73;8.27;;;;;;;;;;5068454;28;20800;-61
2021/09/09 09:27:08;;;;;;;12.53;10.70;;;;;;;;;;5050538;28;20482;-62
2021/09/09 09:29:33;;;;;;;11.80;8.60;;;;;;;;;;5031960;28;20952;-61
2021/09/09 09:32:14;;;;;;;11.90;7.47;;;;;;;;;;5060633;28;20452;-62
2021/09/09 09:34:41;;;;;;;9.30;8.40;;;;;;;;;;5066199;28;20227;-62
2021/09/09 09:37:06;;;;;;;9.37;8.40;;;;;;;;;;5068258;28;20459;-61
2021/09/09 09:39:32;;;;;;;9.00;8.20;;;;;;;;;;5054825;28;21016;-62
2021/09/09 09:42:03;;;;;;;11.53;8.67;;;;;;;;;;5067474;28;20220;-61
2021/09/09 09:44:28;;;;;;;10.13;7.97;;;;;;;;;;5065568;28;20311;-62
2021/09/09 09:47:09;;;;;;;8.17;7.40;;;;;;;;;;5060986;28;20530;-62
2021/09/09 09:49:37;;;;;;;9.10;8.17;;;;;;;;;;5062042;28;20308;-62
2021/09/09 09:52:02;;;;;;;9.93;9.00;;;;;;;;;;5050322;28;20531;-62
2021/09/09 09:54:28;;;;;;;10.73;8.90;;;;;;;;;;5067172;28;20546;-61
2021/09/09 09:56:55;;;;;;;10.57;8.53;;;;;;;;;;5060501;28;20623;-62
2021/09/09 09:59:21;;;;;;;9.17;8.27;;;;;;;;;;5061864;28;20471;-62
2021/09/09 10:01:47;;;;;;;9.37;8.50;;;;;;;;;;5067378;28;20955;-61
2021/09/09 10:04:17;;;;;;;10.40;7.77;;;;;;;;;;5066720;28;20250;-62
2021/09/09 10:06:44;;;;;;;9.03;8.10;;;;;;;;;;5060481;28;20227;-62
2021/09/09 10:09:10;;;;;;;8.50;7.70;;;;;;;;;;5044204;28;20457;-62
2021/09/09 10:11:36;;;;;;;8.60;7.70;;;;;;;;;;5067492;28;20483;-62
2021/09/09 10:14:05;;;;;;;9.43;8.57;;;;;;;;;;5066091;28;20764;-66
2021/09/09 10:16:32;;;;;;;10.73;8.33;;;;;;;;;;5060520;28;20221;-63
2021/09/09 10:18:57;;;;;;;8.60;7.80;;;;;;;;;;5060529;28;20460;-62
2021/09/09 10:21:43;;;;;;;10.30;7.77;;;;;;;;;;5067241;28;20463;-62
2021/09/09 10:24:41;;;;;;;8.60;7.47;;;;;;;;;;5067107;28;20353;-62
2021/09/09 10:27:24;;;;;;;9.53;8.17;;;;;;;;;;5054935;28;20897;-61
2021/09/09 10:30:00;;;;;;;13.97;12.50;;;;;;;;;;5050757;28;20580;-62
2021/09/09 10:32:45;;;;;;;12.33;8.10;;;;;;;;;;5058095;28;20463;-62
2021/09/09 10:35:17;;;;;;;9.70;8.83;;;;;;;;;;5065359;28;20442;-61
2021/09/09 10:37:46;;;;;;;10.97;9.00;;;;;;;;;;5060311;28;20451;-62
2021/09/09 10:40:34;;;;;;;9.33;8.53;;;;;;;;;;5045460;28;20779;-62
2021/09/09 10:43:05;;;;;;;10.03;9.13;;;;;;;;;;5060899;28;20460;-61
2021/09/09 10:45:37;;;;;;;10.93;9.60;;;;;;;;;;5066998;28;20456;-61
2021/09/09 10:48:04;;;;;;;10.30;8.03;;;;;;;;;;5066977;28;20479;-62
2021/09/09 10:50:30;;;;;;;11.80;9.43;;;;;;;;;;5060741;28;20471;-61
2021/09/09 10:52:59;;;;;;;7.63;6.87;;;;;;;;;;5059686;28;20466;-62
2021/09/09 10:55:27;;;;;;;9.73;8.80;;;;;;;;;;5066234;28;20466;-62
2021/09/09 10:58:20;;;;;;;13.30;7.93;;;;;;;;;;5066761;28;20961;-62
2021/09/09 11:00:51;;;;;;;9.97;8.13;;;;;;;;;;5065133;28;20778;-61
2021/09/09 11:03:35;;;;;;;10.70;9.50;;;;;;;;;;5059634;28;20450;-62
2021/09/09 11:06:06;;;;;;;8.60;7.53;;;;;;;;;;5059558;28;20471;-62
2021/09/09 11:08:31;;;;;;;8.20;7.30;;;;;;;;;;5064887;28;20538;-61
2021/09/09 11:10:56;;;;;;;8.27;7.60;;;;;;;;;;5066425;28;20528;-62
2021/09/09 11:13:29;;;;;;;11.27;9.17;;;;;;;;;;5061864;28;20224;-62
2021/09/09 11:15:55;;;;;;;10.53;9.63;;;;;;;;;;5059641;28;20255;-63
2021/09/09 11:18:27;;;;;;;10.43;8.33;;;;;;;;;;5063985;28;20479;-61
2021/09/09 11:21:02;;;;;;;11.40;9.20;;;;;;;;;;5066321;28;20976;-62
2021/09/09 11:23:28;;;;;;;8.70;7.90;;;;;;;;;;5064851;28;20462;-61
2021/09/09 11:25:53;;;;;;;9.37;8.33;;;;;;;;;;5062557;28;21023;-63
2021/09/09 11:28:19;;;;;;;9.97;8.97;;;;;;;;;;5066584;28;20304;-61
2021/09/09 11:31:13;;;;;;;8.47;7.60;;;;;;;;;;5070632;28;20680;-62
2021/09/09 11:33:58;;;;;;;12.73;7.80;;;;;;;;;;5070182;28;20459;-61
2021/09/09 11:36:26;;;;;;;8.67;7.87;;;;;;;;;;5068462;28;20470;-61
2021/09/09 11:38:54;;;;;;;7.50;6.80;;;;;;;;;;5058547;28;20477;-61
2021/09/09 11:41:21;;;;;;;7.80;7.00;;;;;;;;;;5068758;28;20466;-62
2021/09/09 11:43:51;;;;;;;8.83;8.03;;;;;;;;;;5063139;28;20466;-62
2021/09/09 11:46:31;;;;;;;7.80;7.10;;;;;;;;;;5063845;28;20471;-62
2021/09/09 11:48:57;;;;;;;9.20;7.80;;;;;;;;;;5052051;28;20490;-61
2021/09/09 11:51:36;;;;;;;11.13;8.13;;;;;;;;;;5062756;28;20471;-61
2021/09/09 11:54:03;;;;;;;10.70;7.80;;;;;;;;;;5067155;28;20462;-61
2021/09/09 11:56:29;;;;;;;9.17;8.20;;;;;;;;;;5070006;28;20498;-61
2021/09/09 11:58:54;;;;;;;10.57;9.37;;;;;;;;;;5065843;28;20482;-62
2021/09/09 12:01:20;;;;;;;10.03;8.90;;;;;;;;;;5062957;28;20225;-61
2021/09/09 12:03:45;;;;;;;10.60;8.90;;;;;;;;;;5049209;28;20308;-61
2021/09/09 12:06:12;;;;;;;9.00;8.20;;;;;;;;;;5052388;28;20224;-61
2021/09/09 12:08:39;;;;;;;9.83;9.00;;;;;;;;;;5048141;28;20277;-62
2021/09/09 12:11:12;;;;;;;8.97;8.17;;;;;;;;;;5062638;28;20466;-62
2021/09/09 12:13:39;;;;;;;9.53;8.63;;;;;;;;;;5065754;28;20467;-62
2021/09/09 12:16:10;;;;;;;9.23;8.30;;;;;;;;;;5069496;28;20521;-60
2021/09/09 12:18:35;;;;;;;8.13;7.13;;;;;;;;;;5067889;28;20841;-61
2021/09/09 12:21:08;;;;;;;11.20;8.60;;;;;;;;;;5062313;28;20451;-61
2021/09/09 12:23:33;;;;;;;8.00;7.30;;;;;;;;;;5064287;28;20229;-61
2021/09/09 12:26:14;;;;;;;10.40;7.30;;;;;;;;;;5069120;28;20459;-61
2021/09/09 12:28:40;;;;;;;8.47;7.50;;;;;;;;;;5069252;28;20230;-62
2021/09/09 12:31:05;;;;;;;8.73;7.83;;;;;;;;;;5063580;28;20849;-61
2021/09/09 12:33:35;;;;;;;8.03;7.30;;;;;;;;;;5056493;28;20304;-62
2021/09/09 12:36:14;;;;;;;9.90;7.10;;;;;;;;;;5053435;28;20213;-61
2021/09/09 12:38:41;;;;;;;9.30;7.83;;;;;;;;;;5055195;28;20530;-61
2021/09/09 12:41:29;;;;;;;7.40;6.70;;;;;;;;;;5055299;28;20471;-61
2021/09/09 12:43:57;;;;;;;8.17;7.47;;;;;;;;;;5055234;28;20757;-60
2021/09/09 12:46:42;;;;;;;10.50;8.20;;;;;;;;;;5055837;28;20460;-61
2021/09/09 12:49:12;;;;;;;8.70;7.90;;;;;;;;;;5055663;28;20489;-61
2021/09/09 12:51:53;;;;;;;10.30;7.30;;;;;;;;;;5055853;28;20476;-62
2021/09/09 12:54:19;;;;;;;7.73;7.03;;;;;;;;;;5055812;28;20954;-61
2021/09/09 12:56:49;;;;;;;8.50;7.70;;;;;;;;;;5055394;28;20448;-61
2021/09/09 12:59:16;;;;;;;11.70;8.33;;;;;;;;;;5055566;28;20275;-61
2021/09/09 13:01:41;;;;;;;8.87;8.00;;;;;;;;;;5055056;28;20488;-61
2021/09/09 13:04:06;;;;;;;7.97;7.27;;;;;;;;;;5055794;28;20490;-62
2021/09/09 13:06:32;;;;;;;8.77;7.97;;;;;;;;;;5055329;28;20224;-62
2021/09/09 13:08:57;;;;;;;8.47;7.77;;;;;;;;;;5055867;28;20220;-60
2021/09/09 13:11:22;;;;;;;8.83;8.03;;;;;;;;;;5055328;28;20736;-61
2021/09/09 13:13:48;;;;;;;9.03;7.87;;;;;;;;;;5055054;28;20217;-61
2021/09/09 13:16:13;;;;;;;7.03;6.30;;;;;;;;;;5055325;28;20213;-61
2021/09/09 13:18:43;;;;;;;7.93;7.23;;;;;;;;;;5054888;28;20598;-60
2021/09/09 13:21:10;;;;;;;8.80;7.17;;;;;;;;;;5055069;28;20225;-59
2021/09/09 13:23:36;;;;;;;8.00;7.20;;;;;;;;;;5037396;28;20936;-60
2021/09/09 13:26:02;;;;;;;9.03;7.93;;;;;;;;;;5055189;28;20466;-61
2021/09/09 13:28:27;;;;;;;8.83;7.60;;;;;;;;;;5054738;28;20798;-61
2021/09/09 13:30:52;;;;;;;8.83;7.93;;;;;;;;;;5055029;28;20641;-60
2021/09/09 13:33:17;;;;;;;10.00;9.10;;;;;;;;;;5055249;28;20366;-60
2021/09/09 13:35:43;;;;;;;8.20;7.40;;;;;;;;;;5037185;28;20221;-60
2021/09/09 13:38:08;;;;;;;9.23;7.63;;;;;;;;;;5054788;28;20216;-60
2021/09/09 13:40:33;;;;;;;8.40;7.60;;;;;;;;;;5053489;28;20761;-61
2021/09/09 13:43:00;;;;;;;8.30;7.50;;;;;;;;;;5053856;28;20220;-60
2021/09/09 13:45:25;;;;;;;7.13;6.53;;;;;;;;;;5053788;28;20405;-61
2021/09/09 13:47:51;;;;;;;9.53;7.30;;;;;;;;;;5034911;28;20454;-61
2021/09/09 13:50:16;;;;;;;8.50;7.57;;;;;;;;;;5053615;28;20240;-61
2021/09/09 13:52:42;;;;;;;7.53;6.93;;;;;;;;;;5053164;28;20334;-60
2021/09/09 13:55:09;;;;;;;7.90;7.20;;;;;;;;;;5053798;28;20683;-60
2021/09/09 13:57:38;;;;;;;8.27;7.47;;;;;;;;;;5053181;28;20220;-60
2021/09/09 14:00:06;;;;;;;7.57;6.97;;;;;;;;;;5035874;28;20466;-60
2021/09/09 14:02:31;;;;;;;8.17;6.90;;;;;;;;;;5053168;28;20475;-59
2021/09/09 14:04:56;;;;;;;8.97;8.10;;;;;;;;;;5036065;28;20541;-60
2021/09/09 14:07:23;;;;;;;7.37;6.67;;;;;;;;;;5053777;28;20244;-60
2021/09/09 14:09:52;;;;;;;8.27;7.47;;;;;;;;;;5053024;28;20262;-60
2021/09/09 14:12:17;;;;;;;8.90;7.30;;;;;;;;;;5053466;28;20463;-60
2021/09/09 14:14:43;;;;;;;8.83;7.93;;;;;;;;;;5052881;28;20951;-60
2021/09/09 14:17:08;;;;;;;8.23;7.53;;;;;;;;;;5035702;28;20293;-60
2021/09/09 14:19:33;;;;;;;7.77;6.97;;;;;;;;;;5052864;28;20232;-61
2021/09/09 14:21:59;;;;;;;8.17;7.47;;;;;;;;;;5053169;28;20371;-61
2021/09/09 14:24:24;;;;;;;8.50;7.70;;;;;;;;;;5053312;28;20228;-60